Time;durP1;ratioP1;P1;durP2;ratioP2;P2;SDS_P1;SDS_P2;PMS_P1;PMS_P2;Temp;Humidity;BMP_temperature;BMP_pressure;BME280_temperature;BME280_humidity;BME280_pressure;Samples;Min_cycle;Max_cycle;Signal;HPM_P1;HPM_P2
2022/03/14 00:03:58;;;;;;;18.27;8.33;;;;;2.40;96424.00;;;;8363938;28;20262;-72
2022/03/14 00:08:02;;;;;;;20.30;9.07;;;;;2.30;96413.00;;;;8374824;28;20580;-71
2022/03/14 00:12:07;;;;;;;18.37;8.97;;;;;2.30;96421.00;;;;8367705;28;20281;-71
2022/03/14 00:16:10;;;;;;;16.47;7.93;;;;;2.50;96422.00;;;;8353493;28;20307;-73
2022/03/14 00:20:13;;;;;;;17.23;8.27;;;;;2.90;96429.00;;;;8368188;28;20223;-73
2022/03/14 00:24:16;;;;;;;15.57;8.03;;;;;3.20;96432.00;;;;8377800;28;20228;-73
2022/03/14 00:28:21;;;;;;;19.53;8.67;;;;;3.30;96445.00;;;;8368050;28;20230;-73
2022/03/14 00:32:24;;;;;;;20.50;8.93;;;;;3.00;96438.00;;;;8384528;28;20250;-71
2022/03/14 00:36:27;;;;;;;16.27;8.70;;;;;2.80;96451.00;;;;8377268;28;20728;-71
2022/03/14 00:40:30;;;;;;;28.63;10.57;;;;;2.60;96467.00;;;;8371861;28;20228;-72
2022/03/14 00:44:34;;;;;;;20.23;9.60;;;;;2.30;96458.00;;;;8376435;28;20254;-72
2022/03/14 00:48:37;;;;;;;20.83;10.20;;;;;2.10;96474.00;;;;8383069;28;20291;-73
2022/03/14 00:52:40;;;;;;;25.80;9.57;;;;;1.80;96453.00;;;;8376215;28;20243;-72
2022/03/14 00:56:43;;;;;;;17.50;8.93;;;;;1.50;96438.00;;;;8375021;28;20247;-71
2022/03/14 01:00:48;;;;;;;16.57;8.03;;;;;1.60;96450.00;;;;8383960;28;20313;-72
2022/03/14 01:04:52;;;;;;;15.73;8.30;;;;;1.90;96458.00;;;;8368300;28;20224;-72
2022/03/14 01:08:55;;;;;;;14.40;7.50;;;;;2.10;96465.00;;;;8379195;28;20632;-72
2022/03/14 01:12:58;;;;;;;16.67;8.30;;;;;2.10;96474.00;;;;8369651;28;20220;-71
2022/03/14 01:17:03;;;;;;;20.93;9.17;;;;;1.90;96480.00;;;;8378341;28;20233;-72
2022/03/14 01:21:06;;;;;;;22.83;9.10;;;;;1.70;96475.00;;;;8379835;28;20277;-69
2022/03/14 01:25:09;;;;;;;19.30;9.40;;;;;1.50;96472.00;;;;8384689;28;20562;-71
2022/03/14 01:29:12;;;;;;;19.97;9.67;;;;;1.20;96478.00;;;;8383523;28;20622;-71
2022/03/14 01:33:16;;;;;;;20.27;9.37;;;;;1.00;96468.00;;;;8366219;28;20226;-72
2022/03/14 01:37:19;;;;;;;16.73;7.80;;;;;1.10;96464.00;;;;8373037;28;20656;-72
2022/03/14 01:41:23;;;;;;;19.40;8.30;;;;;1.20;96484.00;;;;8346531;28;20240;-71
2022/03/14 01:45:26;;;;;;;13.13;7.13;;;;;1.40;96491.00;;;;8375142;28;20241;-71
2022/03/14 01:49:30;;;;;;;21.37;9.23;;;;;1.40;96512.00;;;;8375791;28;20224;-72
2022/03/14 01:53:34;;;;;;;21.10;9.43;;;;;1.20;96511.00;;;;8367970;28;20286;-71
2022/03/14 01:57:38;;;;;;;21.30;9.23;;;;;0.90;96508.00;;;;8370661;28;20239;-71
2022/03/14 02:01:41;;;;;;;18.60;8.20;;;;;0.70;96518.00;;;;8381446;28;20235;-71
2022/03/14 02:05:47;;;;;;;22.60;9.00;;;;;0.50;96517.00;;;;8379147;28;20737;-72
2022/03/14 02:09:50;;;;;;;20.97;8.73;;;;;0.50;96509.00;;;;8384350;28;20221;-73
2022/03/14 02:13:53;;;;;;;19.47;8.67;;;;;0.30;96516.00;;;;8368490;28;20232;-74
2022/03/14 02:17:56;;;;;;;21.60;8.37;;;;;0.30;96518.00;;;;8374372;28;20732;-73
2022/03/14 02:22:00;;;;;;;15.57;7.70;;;;;0.50;96537.00;;;;8379874;28;20224;-74
2022/03/14 02:26:03;;;;;;;15.57;8.30;;;;;0.60;96541.00;;;;8372890;28;20246;-77
2022/03/14 02:30:07;;;;;;;19.57;8.90;;;;;0.50;96544.00;;;;8385495;28;20288;-75
2022/03/14 02:34:11;;;;;;;15.23;8.17;;;;;0.40;96533.00;;;;8373219;28;20224;-74
2022/03/14 02:38:16;;;;;;;16.03;8.00;;;;;0.20;96528.00;;;;8366673;28;20638;-74
2022/03/14 02:42:19;;;;;;;19.90;9.40;;;;;0.00;96544.00;;;;8380582;28;20228;-73
2022/03/14 02:46:22;;;;;;;17.40;7.97;;;;;0.00;96549.00;;;;8375674;28;20251;-70
2022/03/14 02:50:26;;;;;;;17.77;8.17;;;;;0.20;96549.00;;;;8380877;28;20224;-71
2022/03/14 02:54:30;;;;;;;17.40;8.37;;;;;0.50;96564.00;;;;8380058;28;20232;-71
2022/03/14 02:58:38;;;;;;;18.13;8.13;;;;;0.60;96579.00;;;;8382944;28;20279;-71
2022/03/14 03:02:42;;;;;;;17.40;8.07;;;;;0.60;96591.00;;;;8401176;22;20227;-71
2022/03/14 03:06:46;;;;;;;17.53;8.20;;;;;0.60;96590.00;;;;8362899;28;20275;-71
2022/03/14 03:10:50;;;;;;;17.50;8.30;;;;;0.50;96588.00;;;;8370993;28;20219;-70
2022/03/14 03:14:54;;;;;;;18.93;8.23;;;;;0.40;96603.00;;;;8379370;28;20750;-70
2022/03/14 03:18:58;;;;;;;17.00;7.73;;;;;0.30;96610.00;;;;8391583;28;20741;-70
2022/03/14 03:23:01;;;;;;;16.73;8.17;;;;;0.10;96595.00;;;;8373387;28;20228;-71
2022/03/14 03:27:06;;;;;;;15.07;7.80;;;;;0.00;96615.00;;;;8379411;28;20227;-70
2022/03/14 03:31:10;;;;;;;18.77;8.07;;;;;0.00;96621.00;;;;8372529;28;20228;-71
2022/03/14 03:35:13;;;;;;;17.33;8.53;;;;;0.00;96639.00;;;;8376344;28;20626;-71
2022/03/14 03:39:16;;;;;;;20.47;8.77;;;;;-0.10;96647.00;;;;8377987;28;20219;-70
2022/03/14 03:43:21;;;;;;;21.97;8.67;;;;;-0.20;96662.00;;;;8375855;28;20228;-70
2022/03/14 03:47:24;;;;;;;18.07;8.87;;;;;-0.20;96672.00;;;;8369571;28;20236;-70
2022/03/14 03:51:27;;;;;;;18.57;9.10;;;;;-0.20;96677.00;;;;8374682;28;20229;-69
2022/03/14 03:55:30;;;;;;;20.70;9.20;;;;;-0.30;96702.00;;;;8379711;28;20638;-70
2022/03/14 03:59:39;;;;;;;20.03;8.87;;;;;-0.40;96708.00;;;;8376182;28;20265;-70
2022/03/14 04:03:42;;;;;;;16.90;8.60;;;;;-0.50;96701.00;;;;8398680;28;20281;-69
2022/03/14 04:07:46;;;;;;;19.47;8.50;;;;;-0.50;96705.00;;;;8411047;28;20618;-69
2022/03/14 04:11:49;;;;;;;15.83;7.90;;;;;-0.50;96706.00;;;;8403541;28;20223;-70
2022/03/14 04:15:54;;;;;;;17.10;7.93;;;;;-0.40;96705.00;;;;8418293;28;20312;-69
2022/03/14 04:20:00;;;;;;;21.07;8.63;;;;;-0.30;96707.00;;;;8410029;28;20767;-70
2022/03/14 04:24:06;;;;;;;16.73;8.47;;;;;-0.10;96716.00;;;;8415180;28;20227;-70
2022/03/14 04:28:09;;;;;;;14.93;7.50;;;;;0.00;96720.00;;;;8419586;28;20226;-70
2022/03/14 04:32:13;;;;;;;18.40;8.17;;;;;0.10;96742.00;;;;8413526;28;20219;-72
2022/03/14 04:36:16;;;;;;;17.23;8.60;;;;;0.10;96742.00;;;;8416658;28;20279;-70
2022/03/14 04:40:19;;;;;;;21.33;9.43;;;;;0.20;96749.00;;;;8414903;28;20360;-70
2022/03/14 04:44:22;;;;;;;21.60;8.90;;;;;0.10;96777.00;;;;8416229;28;20290;-71
2022/03/14 04:48:26;;;;;;;16.43;8.57;;;;;0.10;96783.00;;;;8410284;28;20584;-69
2022/03/14 04:52:29;;;;;;;18.00;9.00;;;;;0.10;96808.00;;;;8416717;28;20820;-69
2022/03/14 04:56:32;;;;;;;19.80;9.40;;;;;0.10;96812.00;;;;8410896;28;20230;-69
2022/03/14 05:00:35;;;;;;;21.03;8.80;;;;;0.10;96829.00;;;;8412701;28;20296;-71
2022/03/14 05:04:41;;;;;;;17.87;9.07;;;;;0.00;96826.00;;;;8402875;28;20765;-71
2022/03/14 05:08:44;;;;;;;23.90;10.13;;;;;0.00;96845.00;;;;8412845;28;20231;-69
2022/03/14 05:12:46;;;;;;;22.93;9.63;;;;;0.10;96856.00;;;;8410606;28;20849;-69
2022/03/14 05:16:49;;;;;;;22.47;9.43;;;;;0.20;96858.00;;;;8415005;28;20330;-69
2022/03/14 05:20:54;;;;;;;24.87;10.33;;;;;0.40;96852.00;;;;8416794;28;20565;-69
2022/03/14 05:24:57;;;;;;;19.57;9.53;;;;;0.60;96865.00;;;;8407399;28;20227;-68
2022/03/14 05:29:00;;;;;;;17.60;9.47;;;;;0.80;96889.00;;;;8423714;28;20848;-69
2022/03/14 05:33:03;;;;;;;19.83;9.73;;;;;1.00;96887.00;;;;8414609;28;20265;-70
2022/03/14 05:37:08;;;;;;;24.63;8.90;;;;;1.30;96895.00;;;;8414599;28;20303;-68
2022/03/14 05:41:11;;;;;;;18.37;9.23;;;;;1.40;96915.00;;;;8400619;28;20624;-68
2022/03/14 05:45:14;;;;;;;18.33;8.80;;;;;1.60;96917.00;;;;8405799;28;20227;-70
2022/03/14 05:49:17;;;;;;;20.50;9.17;;;;;1.70;96919.00;;;;8402703;28;20223;-66
2022/03/14 05:53:22;;;;;;;21.20;9.57;;;;;1.80;96922.00;;;;8406432;28;20262;-69
2022/03/14 05:57:25;;;;;;;19.67;9.77;;;;;1.90;96910.00;;;;8406020;28;20257;-69
2022/03/14 06:01:27;;;;;;;23.57;10.27;;;;;2.00;96938.00;;;;8406073;28;20223;-68
2022/03/14 06:05:31;;;;;;;19.50;9.17;;;;;2.20;96947.00;;;;8408606;28;20227;-69
2022/03/14 06:09:36;;;;;;;25.27;10.03;;;;;2.40;96967.00;;;;8414369;28;20306;-68
2022/03/14 06:13:40;;;;;;;19.67;9.60;;;;;2.40;96989.00;;;;8410504;28;20219;-67
2022/03/14 06:17:44;;;;;;;18.10;8.97;;;;;2.30;96999.00;;;;8403773;28;20235;-68
2022/03/14 06:21:47;;;;;;;17.90;9.03;;;;;2.40;96988.00;;;;8407152;28;20231;-67
2022/03/14 06:25:54;;;;;;;18.40;8.67;;;;;2.50;96977.00;;;;8416250;28;20668;-66
2022/03/14 06:29:57;;;;;;;19.50;8.27;;;;;3.00;97001.00;;;;8436361;28;20802;-67
2022/03/14 06:34:00;;;;;;;15.53;8.13;;;;;3.40;97013.00;;;;8416826;28;20296;-70
2022/03/14 06:38:05;;;;;;;17.20;8.77;;;;;3.80;97008.00;;;;8416568;28;20216;-67
2022/03/14 06:42:11;;;;;;;22.40;8.20;;;;;4.10;97026.00;;;;8416876;28;20261;-68
2022/03/14 06:46:14;;;;;;;20.73;9.50;;;;;4.40;97030.00;;;;8415988;28;20266;-67
2022/03/14 06:50:17;;;;;;;18.40;8.60;;;;;4.70;97036.00;;;;8409236;28;20285;-68
2022/03/14 06:54:20;;;;;;;17.97;8.67;;;;;5.00;97041.00;;;;8414838;28;20227;-67
2022/03/14 06:58:25;;;;;;;20.13;8.73;;;;;5.10;97057.00;;;;8413569;28;20263;-68
2022/03/14 07:02:28;;;;;;;16.57;8.40;;;;;5.20;97065.00;;;;8409245;28;20300;-69
2022/03/14 07:06:31;;;;;;;18.20;9.67;;;;;5.20;97047.00;;;;8414415;28;20750;-67
2022/03/14 07:10:34;;;;;;;17.53;9.77;;;;;5.20;97070.00;;;;8411388;28;20292;-69
2022/03/14 07:14:39;;;;;;;21.97;9.40;;;;;5.20;97084.00;;;;8406228;28;20220;-70
2022/03/14 07:18:43;;;;;;;19.10;8.90;;;;;5.30;97084.00;;;;8395048;28;20233;-71
2022/03/14 07:22:55;;;;;;;21.43;9.47;;;;;5.40;97116.00;;;;8399557;28;20217;-70
2022/03/14 07:26:58;;;;;;;28.03;11.77;;;;;5.50;97130.00;;;;8400519;28;20565;-69
2022/03/14 07:31:03;;;;;;;21.23;10.70;;;;;5.70;97134.00;;;;8395910;28;20230;-70
2022/03/14 07:35:06;;;;;;;22.20;10.40;;;;;6.00;97138.00;;;;8397828;28;20231;-70
2022/03/14 07:39:14;;;;;;;23.13;10.63;;;;;6.20;97138.00;;;;8390387;28;20228;-73
2022/03/14 07:43:16;;;;;;;20.70;10.50;;;;;6.40;97135.00;;;;8397931;28;20231;-75
2022/03/14 07:47:21;;;;;;;20.63;9.93;;;;;6.70;97137.00;;;;8399925;28;20232;-73
2022/03/14 07:51:24;;;;;;;20.60;9.60;;;;;7.00;97142.00;;;;8396403;28;20294;-73
2022/03/14 07:55:27;;;;;;;21.23;9.90;;;;;7.30;97140.00;;;;8408728;28;20254;-72
2022/03/14 07:59:30;;;;;;;17.83;9.20;;;;;7.70;97138.00;;;;8410000;28;20260;-73
2022/03/14 08:03:34;;;;;;;19.17;9.70;;;;;8.00;97146.00;;;;8390047;28;20272;-71
2022/03/14 08:07:39;;;;;;;20.23;9.83;;;;;8.30;97147.00;;;;8410211;28;20324;-76
2022/03/14 08:11:42;;;;;;;24.27;13.02;;;;;8.50;97160.00;;;;8401576;28;20448;-72
2022/03/14 08:15:45;;;;;;;23.40;10.17;;;;;8.90;97181.00;;;;8406097;28;20220;-71
2022/03/14 08:19:50;;;;;;;18.90;9.63;;;;;9.10;97207.00;;;;8406001;28;20222;-68
2022/03/14 08:23:53;;;;;;;27.97;11.67;;;;;9.20;97219.00;;;;8408666;28;20315;-69
2022/03/14 08:27:56;;;;;;;19.00;10.23;;;;;9.30;97230.00;;;;8398725;28;20235;-69
2022/03/14 08:32:00;;;;;;;21.90;10.47;;;;;9.50;97222.00;;;;8401900;28;20250;-69
2022/03/14 08:36:05;;;;;;;15.67;9.17;;;;;9.90;97224.00;;;;8411014;28;20230;-69
2022/03/14 08:40:10;;;;;;;15.90;8.30;;;;;10.50;97224.00;;;;8407309;28;20235;-69
2022/03/14 08:44:13;;;;;;;12.30;7.80;;;;;10.80;97235.00;;;;8388425;28;20657;-68
2022/03/14 08:48:16;;;;;;;12.57;6.50;;;;;10.70;97241.00;;;;8419841;28;20372;-71
2022/03/14 08:52:20;;;;;;;10.73;6.43;;;;;10.70;97244.00;;;;8417058;28;20219;-69
2022/03/14 08:56:23;;;;;;;5.83;4.43;;;;;10.60;97263.00;;;;8413138;28;20284;-68
2022/03/14 09:00:27;;;;;;;6.33;4.13;;;;;10.70;97264.00;;;;8412716;28;20215;-69
2022/03/14 09:04:32;;;;;;;3.90;3.30;;;;;10.90;97256.00;;;;8400630;28;20890;-68
2022/03/14 09:08:36;;;;;;;4.27;3.03;;;;;11.00;97245.00;;;;8412989;28;20290;-67
2022/03/14 09:12:42;;;;;;;5.80;4.03;;;;;11.10;97234.00;;;;8405223;28;20251;-68
2022/03/14 09:16:46;;;;;;;5.70;3.00;;;;;11.60;97243.00;;;;8411178;28;20921;-68
2022/03/14 09:20:49;;;;;;;2.77;2.47;;;;;12.20;97258.00;;;;8418570;28;20580;-69
2022/03/14 09:24:55;;;;;;;3.77;2.70;;;;;12.60;97254.00;;;;8413871;28;20223;-69
2022/03/14 09:28:58;;;;;;;4.25;2.50;;;;;13.20;97263.00;;;;8417566;28;20228;-69
2022/03/14 09:33:01;;;;;;;2.97;2.78;;;;;13.20;97276.00;;;;8407928;28;20277;-69
2022/03/14 09:37:04;;;;;;;3.00;2.67;;;;;13.40;97276.00;;;;8413782;28;20289;-68
2022/03/14 09:41:09;;;;;;;3.45;2.50;;;;;13.80;97292.00;;;;8410415;28;20220;-68
2022/03/14 09:45:14;;;;;;;2.22;2.10;;;;;14.10;97309.00;;;;8405446;28;20805;-67
2022/03/14 09:49:18;;;;;;;2.58;2.30;;;;;13.90;97304.00;;;;8390118;28;20228;-68
2022/03/14 09:53:21;;;;;;;1.92;1.77;;;;;13.60;97316.00;;;;8414047;28;20279;-68
2022/03/14 09:57:26;;;;;;;1.70;1.60;;;;;13.40;97306.00;;;;8406566;28;20294;-67
2022/03/14 10:01:29;;;;;;;1.75;1.63;;;;;13.40;97316.00;;;;8396721;28;20233;-68
2022/03/14 10:05:33;;;;;;;2.08;1.88;;;;;13.60;97316.00;;;;8405838;28;20319;-67
2022/03/14 10:09:37;;;;;;;4.40;1.80;;;;;13.80;97317.00;;;;8411954;28;20268;-68
2022/03/14 10:13:41;;;;;;;2.05;1.88;;;;;13.80;97317.00;;;;8406695;28;20233;-68
2022/03/14 10:17:44;;;;;;;3.80;1.95;;;;;13.70;97320.00;;;;8408927;28;20230;-68
2022/03/14 10:21:50;;;;;;;2.70;1.80;;;;;13.70;97322.00;;;;8408590;28;20366;-66
2022/03/14 10:25:57;;;;;;;4.40;2.30;;;;;14.00;97329.00;;;;8403209;28;20685;-67
2022/03/14 10:30:02;;;;;;;3.45;2.30;;;;;14.10;97324.00;;;;8408662;28;20289;-68
2022/03/14 10:34:09;;;;;;;8.00;2.08;;;;;14.30;97334.00;;;;8401802;28;20936;-67
2022/03/14 10:38:13;;;;;;;2.42;2.22;;;;;14.60;97346.00;;;;8403105;28;20678;-68
2022/03/14 10:42:16;;;;;;;3.28;1.95;;;;;15.40;97343.00;;;;8402740;28;20321;-68
2022/03/14 10:46:28;;;;;;;2.97;1.70;;;;;15.30;97351.00;;;;8411728;28;20305;-67
2022/03/14 10:50:34;;;;;;;5.93;1.90;;;;;15.10;97357.00;;;;8399312;28;20357;-67
2022/03/14 10:54:37;;;;;;;1.98;1.75;;;;;14.90;97345.00;;;;8398074;28;20223;-68
2022/03/14 10:58:40;;;;;;;2.20;1.60;;;;;15.00;97360.00;;;;8411757;28;20287;-68
2022/03/14 11:03:03;;;;;;;2.70;1.58;;;;;15.20;97362.00;;;;8415661;28;20283;-67
2022/03/14 11:07:06;;;;;;;4.65;2.17;;;;;15.70;97364.00;;;;8398162;28;20250;-68
2022/03/14 11:11:11;;;;;;;3.67;1.67;;;;;15.60;97358.00;;;;8411620;28;20283;-68
2022/03/14 11:15:17;;;;;;;2.33;1.92;;;;;15.40;97370.00;;;;8403964;28;20283;-67
2022/03/14 11:19:21;;;;;;;6.72;1.85;;;;;15.30;97368.00;;;;8407787;28;20225;-67
2022/03/14 11:23:25;;;;;;;4.25;1.73;;;;;14.70;97375.00;;;;8399559;28;20230;-67
2022/03/14 11:27:30;;;;;;;1.45;1.38;;;;;14.50;97370.00;;;;8411241;28;20303;-67
2022/03/14 11:31:34;;;;;;;3.17;1.52;;;;;15.10;97357.00;;;;8408883;28;20241;-67
2022/03/14 11:35:38;;;;;;;5.78;1.80;;;;;15.60;97357.00;;;;8409243;28;20230;-68
2022/03/14 11:39:41;;;;;;;3.33;1.60;;;;;15.90;97354.00;;;;8410073;28;20288;-67
2022/03/14 11:43:46;;;;;;;2.33;1.48;;;;;15.90;97363.00;;;;8409496;28;20288;-66
2022/03/14 11:48:10;;;;;;;2.65;1.60;;;;;15.60;97361.00;;;;8410539;28;20222;-66
2022/03/14 11:52:19;;;;;;;3.88;2.03;;;;;15.40;97361.00;;;;8413132;28;20261;-66
2022/03/14 11:56:22;;;;;;;6.47;1.60;;;;;15.40;97359.00;;;;8421014;28;20234;-66
2022/03/14 12:00:38;;;;;;;2.13;1.55;;;;;15.50;97348.00;;;;8406069;28;20238;-67
2022/03/14 12:04:41;;;;;;;4.10;1.50;;;;;15.50;97349.00;;;;8422494;28;20225;-66
2022/03/14 12:08:55;;;;;;;2.80;1.50;;;;;15.60;97340.00;;;;8420753;28;20331;-67
2022/03/14 12:12:58;;;;;;;4.28;1.77;;;;;15.50;97344.00;;;;8413228;28;20223;-67
2022/03/14 12:17:21;;;;;;;1.52;1.42;;;;;15.30;97345.00;;;;8402621;28;20238;-66
2022/03/14 12:21:47;;;;;;;2.63;1.63;;;;;14.90;97338.00;;;;8413479;28;20557;-66
2022/03/14 12:25:51;;;;;;;1.70;1.55;;;;;14.90;97344.00;;;;8411750;28;20218;-67
2022/03/14 12:29:56;;;;;;;1.98;1.60;;;;;14.80;97348.00;;;;8440335;28;20226;-67
2022/03/14 12:34:10;;;;;;;4.93;2.20;;;;;14.90;97347.00;;;;8418090;28;20287;-67
2022/03/14 12:38:24;;;;;;;2.35;1.50;;;;;15.50;97334.00;;;;8410134;28;20238;-67
2022/03/14 12:42:37;;;;;;;6.85;1.95;;;;;15.80;97336.00;;;;8409350;28;20644;-68
2022/03/14 12:46:41;;;;;;;2.15;1.80;;;;;15.70;97329.00;;;;8399404;28;20725;-67
2022/03/14 12:51:10;;;;;;;1.73;1.58;;;;;15.70;97329.00;;;;8414460;28;20236;-68
2022/03/14 12:55:18;;;;;;;2.30;1.50;;;;;15.60;97329.00;;;;8415111;28;20254;-67
2022/03/14 12:59:27;;;;;;;2.33;1.30;;;;;15.70;97338.00;;;;8411671;28;20241;-67
2022/03/14 13:03:32;;;;;;;2.67;1.80;;;;;15.60;97341.00;;;;8418048;28;20262;-67
2022/03/14 13:07:36;;;;;;;2.72;1.70;;;;;15.50;97338.00;;;;8415261;28;20249;-67
2022/03/14 13:11:41;;;;;;;3.17;1.50;;;;;15.60;97337.00;;;;8411498;28;20369;-67
2022/03/14 13:15:45;;;;;;;3.97;2.00;;;;;15.40;97330.00;;;;8407554;28;20591;-68
2022/03/14 13:19:48;;;;;;;2.72;1.88;;;;;15.30;97335.00;;;;8413098;28;20236;-68
2022/03/14 13:23:53;;;;;;;1.95;1.45;;;;;15.30;97333.00;;;;8411499;28;20222;-68
2022/03/14 13:27:56;;;;;;;3.00;1.65;;;;;15.30;97347.00;;;;8415820;28;20314;-68
2022/03/14 13:32:01;;;;;;;1.63;1.52;;;;;15.40;97342.00;;;;8408278;28;20235;-68
2022/03/14 13:36:06;;;;;;;1.60;1.50;;;;;15.30;97336.00;;;;8410224;28;20313;-67
2022/03/14 13:40:19;;;;;;;2.25;1.80;;;;;15.40;97335.00;;;;8406758;28;20641;-68
2022/03/14 13:44:25;;;;;;;3.15;1.60;;;;;15.50;97343.00;;;;8411934;28;20245;-68
2022/03/14 13:48:30;;;;;;;3.83;1.60;;;;;15.60;97347.00;;;;8412975;28;20266;-68
2022/03/14 13:52:33;;;;;;;2.30;1.90;;;;;15.90;97352.00;;;;8411617;28;20287;-70
2022/03/14 13:56:38;;;;;;;3.53;1.63;;;;;16.00;97337.00;;;;8402199;28;20273;-70
2022/03/14 14:00:51;;;;;;;3.45;1.70;;;;;15.90;97338.00;;;;8403142;28;20371;-68
2022/03/14 14:04:56;;;;;;;2.53;1.63;;;;;15.60;97341.00;;;;8401744;28;20231;-70
2022/03/14 14:09:00;;;;;;;3.85;1.50;;;;;15.60;97337.00;;;;8404950;28;20272;-69
2022/03/14 14:13:05;;;;;;;2.05;1.40;;;;;15.80;97340.00;;;;8410703;28;20294;-71
2022/03/14 14:17:13;;;;;;;1.50;1.40;;;;;16.00;97333.00;;;;8405580;28;20215;-70
2022/03/14 14:21:22;;;;;;;2.13;1.52;;;;;16.20;97337.00;;;;8404066;28;20576;-69
2022/03/14 14:25:28;;;;;;;3.05;1.52;;;;;15.90;97356.00;;;;8404039;28;20641;-70
2022/03/14 14:29:44;;;;;;;3.95;1.50;;;;;16.10;97362.00;;;;8406050;28;20231;-70
2022/03/14 14:33:47;;;;;;;3.00;1.70;;;;;16.30;97366.00;;;;8402574;28;20289;-69
2022/03/14 14:37:52;;;;;;;3.80;1.70;;;;;16.30;97368.00;;;;8403178;28;20782;-67
2022/03/14 14:42:06;;;;;;;5.45;1.75;;;;;16.10;97368.00;;;;8405756;28;20230;-67
2022/03/14 14:46:09;;;;;;;2.70;1.83;;;;;15.90;97379.00;;;;8399823;28;20271;-67
2022/03/14 14:50:12;;;;;;;3.17;1.67;;;;;15.90;97370.00;;;;8403035;28;20337;-67
2022/03/14 14:54:17;;;;;;;2.50;1.67;;;;;15.90;97366.00;;;;8408344;28;20625;-67
2022/03/14 14:58:22;;;;;;;1.60;1.50;;;;;16.00;97371.00;;;;8410049;28;20215;-71
2022/03/14 15:02:25;;;;;;;2.65;1.65;;;;;16.00;97369.00;;;;8396888;28;20251;-70
2022/03/14 15:06:28;;;;;;;2.20;1.80;;;;;15.70;97377.00;;;;8401281;28;20316;-70
2022/03/14 15:10:34;;;;;;;2.97;1.60;;;;;15.60;97370.00;;;;8411271;28;20737;-71
2022/03/14 15:14:37;;;;;;;4.35;2.05;;;;;15.90;97375.00;;;;8407594;28;20873;-70
2022/03/14 15:18:40;;;;;;;3.03;1.73;;;;;15.90;97378.00;;;;8410937;28;20289;-70
2022/03/14 15:22:44;;;;;;;8.52;1.70;;;;;15.80;97372.00;;;;8409701;28;20261;-70
2022/03/14 15:26:50;;;;;;;2.42;1.48;;;;;16.00;97373.00;;;;8412575;28;20956;-69
2022/03/14 15:30:53;;;;;;;2.50;1.60;;;;;16.10;97387.00;;;;8405545;28;20791;-71
2022/03/14 15:34:57;;;;;;;3.78;1.85;;;;;16.10;97394.00;;;;8413606;28;20234;-71
2022/03/14 15:39:02;;;;;;;4.65;1.77;;;;;16.00;97385.00;;;;8401409;28;20753;-70
2022/03/14 15:43:06;;;;;;;3.55;1.80;;;;;15.90;97388.00;;;;8406277;28;20930;-71
2022/03/14 15:47:09;;;;;;;3.15;1.75;;;;;15.90;97390.00;;;;8402265;28;20219;-71
2022/03/14 15:51:13;;;;;;;2.28;1.58;;;;;15.80;97396.00;;;;8407824;28;20272;-71
2022/03/14 15:55:17;;;;;;;3.92;2.30;;;;;15.90;97397.00;;;;8400021;28;20257;-71
2022/03/14 15:59:22;;;;;;;5.63;2.40;;;;;15.60;97393.00;;;;8393336;28;21430;-71
2022/03/14 16:03:25;;;;;;;4.28;2.00;;;;;15.40;97401.00;;;;8411037;28;20235;-71
2022/03/14 16:07:29;;;;;;;6.85;2.28;;;;;15.20;97406.00;;;;8404403;28;20254;-71
2022/03/14 16:11:32;;;;;;;9.73;1.80;;;;;15.00;97408.00;;;;8412223;28;20227;-69
2022/03/14 16:15:41;;;;;;;2.60;1.90;;;;;14.80;97415.00;;;;8403067;28;20226;-70
2022/03/14 16:19:45;;;;;;;1.98;1.70;;;;;14.60;97421.00;;;;8396940;28;20231;-69
2022/03/14 16:23:51;;;;;;;3.55;1.92;;;;;14.50;97422.00;;;;8397110;28;20227;-70
2022/03/14 16:27:55;;;;;;;2.35;1.80;;;;;14.30;97424.00;;;;8421687;28;20226;-70
2022/03/14 16:31:59;;;;;;;3.20;1.83;;;;;14.20;97428.00;;;;8415841;28;20223;-71
2022/03/14 16:36:02;;;;;;;3.15;1.80;;;;;14.00;97428.00;;;;8400846;28;20226;-71
2022/03/14 16:40:07;;;;;;;2.50;1.80;;;;;13.80;97434.00;;;;8413432;28;20233;-71
2022/03/14 16:44:11;;;;;;;2.45;1.73;;;;;13.50;97435.00;;;;8414243;28;20911;-71
2022/03/14 16:48:16;;;;;;;3.40;1.83;;;;;13.30;97445.00;;;;8412027;28;20261;-71
2022/03/14 16:52:19;;;;;;;4.63;1.60;;;;;13.10;97447.00;;;;8393483;28;20235;-70
2022/03/14 16:56:22;;;;;;;6.55;2.15;;;;;12.80;97445.00;;;;8396611;28;20230;-70
2022/03/14 17:00:25;;;;;;;5.53;1.98;;;;;12.60;97452.00;;;;8398425;28;20717;-70
2022/03/14 17:04:30;;;;;;;4.20;1.90;;;;;12.40;97456.00;;;;8399366;28;20281;-71
2022/03/14 17:08:33;;;;;;;4.90;1.85;;;;;12.20;97469.00;;;;8410783;28;20756;-70
2022/03/14 17:12:37;;;;;;;4.57;2.10;;;;;12.00;97476.00;;;;8404172;28;20265;-70
2022/03/14 17:16:42;;;;;;;5.32;2.20;;;;;11.70;97468.00;;;;8406619;28;20265;-71
2022/03/14 17:20:48;;;;;;;3.47;2.00;;;;;11.30;97468.00;;;;8413385;28;20297;-70
2022/03/14 17:24:51;;;;;;;6.47;2.10;;;;;11.00;97476.00;;;;8394016;28;20667;-71
2022/03/14 17:28:54;;;;;;;7.10;2.60;;;;;10.60;97471.00;;;;8401644;28;20490;-68
2022/03/14 17:32:58;;;;;;;7.23;2.47;;;;;10.30;97487.00;;;;8403424;28;20246;-68
2022/03/14 17:37:02;;;;;;;16.40;5.13;;;;;10.00;97476.00;;;;8398344;28;20223;-68
2022/03/14 17:41:06;;;;;;;6.77;3.10;;;;;9.70;97470.00;;;;8415592;28;20219;-69
2022/03/14 17:45:10;;;;;;;3.67;1.90;;;;;9.30;97476.00;;;;8409888;28;20338;-70
2022/03/14 17:49:13;;;;;;;2.43;1.80;;;;;9.00;97475.00;;;;8407803;28;20227;-68
2022/03/14 17:53:18;;;;;;;7.17;2.10;;;;;8.70;97487.00;;;;8409945;28;20235;-68
2022/03/14 17:57:21;;;;;;;3.40;2.37;;;;;8.40;97494.00;;;;8408874;28;20227;-69
2022/03/14 18:01:24;;;;;;;7.20;2.23;;;;;8.20;97492.00;;;;8392111;28;20234;-70
2022/03/14 18:05:27;;;;;;;5.27;2.30;;;;;7.80;97491.00;;;;8401444;28;20227;-69
2022/03/14 18:09:31;;;;;;;9.37;3.07;;;;;7.60;97489.00;;;;8398603;28;20626;-70
2022/03/14 18:13:34;;;;;;;3.17;2.60;;;;;7.30;97492.00;;;;8404502;28;20307;-70
2022/03/14 18:17:38;;;;;;;11.50;2.80;;;;;7.10;97491.00;;;;8405540;28;20230;-74
2022/03/14 18:21:41;;;;;;;10.27;2.57;;;;;6.90;97489.00;;;;8405306;28;20226;-75
2022/03/14 18:25:47;;;;;;;4.57;2.23;;;;;6.80;97495.00;;;;8403120;28;20738;-76
2022/03/14 18:29:50;;;;;;;3.00;1.80;;;;;6.70;97502.00;;;;8410243;28;20226;-75
2022/03/14 18:33:57;;;;;;;3.67;2.27;;;;;6.50;97509.00;;;;8400694;28;20229;-76
2022/03/14 18:38:00;;;;;;;8.20;2.30;;;;;6.40;97512.00;;;;8408134;28;20701;-75
2022/03/14 18:42:06;;;;;;;14.33;3.43;;;;;6.30;97516.00;;;;8406136;28;20281;-75
2022/03/14 18:46:09;;;;;;;4.37;2.70;;;;;6.20;97521.00;;;;8407399;28;20620;-74
2022/03/14 18:50:14;;;;;;;7.67;2.40;;;;;6.10;97527.00;;;;8401179;28;20237;-74
2022/03/14 18:54:37;;;;;;;8.87;3.57;;;;;5.90;97529.00;;;;8401561;28;20472;-75
2022/03/14 18:58:41;;;;;;;9.37;3.90;;;;;5.80;97522.00;;;;8399612;28;20925;-77
2022/03/14 19:02:50;;;;;;;9.70;4.43;;;;;5.70;97515.00;;;;8399612;28;20246;-78
2022/03/14 19:06:54;;;;;;;12.07;5.00;;;;;5.60;97516.00;;;;8406045;28;20302;-71
2022/03/14 19:10:57;;;;;;;15.17;5.80;;;;;5.50;97509.00;;;;8393260;28;20289;-71
2022/03/14 19:15:01;;;;;;;17.43;5.90;;;;;5.60;97515.00;;;;8395752;28;20219;-73
2022/03/14 19:19:04;;;;;;;11.60;5.63;;;;;5.70;97532.00;;;;8400360;28;20232;-73
2022/03/14 19:23:07;;;;;;;9.30;4.47;;;;;5.90;97536.00;;;;8402219;28;20237;-72
2022/03/14 19:27:10;;;;;;;8.63;4.83;;;;;5.70;97537.00;;;;8399351;28;20231;-72
2022/03/14 19:31:15;;;;;;;13.50;4.10;;;;;5.60;97525.00;;;;8406881;28;20220;-73
2022/03/14 19:35:31;;;;;;;11.60;4.40;;;;;5.30;97528.00;;;;8404265;28;20229;-71
2022/03/14 19:39:34;;;;;;;10.70;4.97;;;;;5.10;97533.00;;;;8398937;28;20218;-72
2022/03/14 19:43:44;;;;;;;11.43;4.30;;;;;4.90;97535.00;;;;8410189;28;20220;-71
2022/03/14 19:47:48;;;;;;;13.43;5.33;;;;;4.80;97538.00;;;;8406564;28;20290;-71
2022/03/14 19:51:51;;;;;;;15.63;6.83;;;;;4.80;97539.00;;;;8411624;28;20224;-72
2022/03/14 19:55:54;;;;;;;16.07;7.50;;;;;4.80;97554.00;;;;8402819;28;20237;-72
2022/03/14 19:59:57;;;;;;;12.87;6.77;;;;;4.80;97553.00;;;;8403365;28;20301;-71
2022/03/14 20:04:02;;;;;;;8.47;4.57;;;;;4.80;97562.00;;;;8410078;28;20324;-72
2022/03/14 20:08:05;;;;;;;13.00;4.90;;;;;4.70;97568.00;;;;8399994;28;20228;-72
2022/03/14 20:12:08;;;;;;;8.90;4.80;;;;;4.50;97566.00;;;;8403153;28;20228;-71
2022/03/14 20:16:11;;;;;;;9.80;4.90;;;;;4.30;97572.00;;;;8404668;28;20285;-71
2022/03/14 20:20:17;;;;;;;13.60;4.77;;;;;4.00;97565.00;;;;8403405;28;20722;-71
2022/03/14 20:24:21;;;;;;;10.93;5.00;;;;;3.70;97577.00;;;;8407098;28;20922;-72
2022/03/14 20:28:24;;;;;;;14.37;7.00;;;;;3.50;97572.00;;;;8406841;28;20828;-71